createdAt,value
2018-09-27T00:00:40.166Z,63.80
2018-09-27T00:03:08.701Z,64.57
2018-09-27T00:05:37.206Z,64.82
2018-09-27T00:08:05.686Z,64.60
2018-09-27T00:10:34.066Z,64.94
2018-09-27T00:13:02.776Z,64.80
2018-09-27T00:15:31.199Z,64.56
2018-09-27T00:18:00.019Z,64.52
2018-09-27T00:20:28.687Z,64.78
2018-09-27T00:22:57.095Z,64.17
2018-09-27T00:25:26.201Z,64.73
2018-09-27T00:27:55.040Z,65.02
2018-09-27T00:30:30.427Z,64.28
2018-09-27T00:32:58.905Z,64.43
2018-09-27T00:35:27.483Z,64.47
2018-09-27T00:37:55.897Z,64.12
2018-09-27T00:40:24.282Z,64.14
2018-09-27T00:42:52.662Z,64.91
2018-09-27T00:45:21.127Z,64.46
2018-09-27T00:47:49.553Z,64.51
2018-09-27T00:50:17.941Z,64.22
2018-09-27T00:52:46.369Z,63.48
2018-09-27T00:55:14.819Z,64.04
2018-09-27T00:57:43.161Z,63.36
2018-09-27T01:00:11.539Z,63.54
2018-09-27T01:02:40.286Z,63.38
2018-09-27T01:05:08.639Z,63.89
2018-09-27T01:07:37.234Z,62.90
2018-09-27T01:10:05.922Z,63.98
2018-09-27T01:12:34.932Z,64.17
2018-09-27T01:15:03.364Z,63.64
2018-09-27T01:17:31.826Z,63.33
2018-09-27T01:20:00.165Z,63.51
2018-09-27T01:22:28.787Z,63.05
2018-09-27T01:24:57.233Z,63.49
2018-09-27T01:27:25.860Z,63.54
2018-09-27T01:29:54.331Z,63.22
2018-09-27T01:32:22.730Z,62.73
2018-09-27T01:34:51.699Z,62.98
2018-09-27T01:37:20.138Z,62.75
2018-09-27T01:39:48.738Z,62.79
2018-09-27T01:42:17.152Z,63.31
2018-09-27T01:44:45.740Z,63.12
2018-09-27T01:47:14.316Z,63.14
2018-09-27T01:49:42.724Z,63.13
2018-09-27T01:52:11.261Z,63.17
2018-09-27T01:54:40.072Z,63.08
2018-09-27T01:57:08.760Z,63.15
2018-09-27T01:59:37.126Z,63.34
2018-09-27T02:02:05.658Z,63.42
2018-09-27T02:04:34.066Z,63.57
2018-09-27T02:07:02.573Z,63.87
2018-09-27T02:09:31.113Z,64.28
2018-09-27T02:11:59.448Z,63.88
2018-09-27T02:14:27.860Z,64.23
2018-09-27T02:16:56.278Z,64.07
2018-09-27T02:19:25.556Z,64.50
2018-09-27T02:21:54.370Z,64.50
2018-09-27T02:24:23.027Z,64.60
2018-09-27T02:26:52.302Z,64.84
2018-09-27T02:29:20.717Z,64.36
2018-09-27T02:31:49.160Z,64.88
2018-09-27T02:34:17.627Z,64.90
2018-09-27T02:36:46.129Z,64.97
2018-09-27T02:39:15.991Z,65.32
2018-09-27T02:41:44.404Z,65.12
2018-09-27T02:44:12.800Z,65.31
2018-09-27T02:46:41.146Z,65.40
2018-09-27T02:49:09.512Z,65.40
2018-09-27T02:51:38.760Z,65.08
2018-09-27T02:54:07.167Z,64.87
2018-09-27T02:56:35.523Z,65.49
2018-09-27T02:59:03.930Z,65.18
2018-09-27T03:01:32.276Z,65.64
2018-09-27T03:04:00.714Z,65.49
2018-09-27T03:06:29.226Z,66.02
2018-09-27T03:08:57.612Z,65.96
2018-09-27T03:11:25.949Z,65.68
2018-09-27T03:13:54.366Z,65.84
2018-09-27T03:16:22.815Z,65.62
2018-09-27T03:18:51.170Z,66.50
2018-09-27T03:21:21.212Z,66.00
2018-09-27T03:23:49.556Z,66.90
2018-09-27T03:26:17.904Z,66.27
2018-09-27T03:28:46.244Z,66.48
2018-09-27T03:31:14.590Z,65.87
2018-09-27T03:33:42.972Z,66.08
2018-09-27T03:36:11.444Z,66.09
2018-09-27T03:38:39.816Z,66.41
2018-09-27T03:41:08.199Z,66.38
2018-09-27T03:43:36.645Z,66.74
2018-09-27T03:46:05.003Z,66.71
2018-09-27T03:48:33.396Z,66.70
2018-09-27T03:51:01.958Z,66.28
2018-09-27T03:53:30.333Z,67.08
2018-09-27T03:55:58.726Z,66.83
2018-09-27T03:58:27.094Z,66.05
2018-09-27T04:00:55.571Z,66.92
2018-09-27T04:03:24.040Z,67.01
2018-09-27T04:05:52.328Z,67.88
2018-09-27T04:08:20.702Z,67.69
2018-09-27T04:10:49.282Z,67.24
2018-09-27T04:13:17.726Z,67.73
2018-09-27T04:15:47.255Z,67.78
2018-09-27T04:18:15.662Z,67.98
2018-09-27T04:20:52.185Z,67.41
2018-09-27T04:23:22.383Z,67.60
2018-09-27T04:25:51.766Z,68.12
2018-09-27T04:28:20.653Z,68.20
2018-09-27T04:30:49.145Z,68.48
2018-09-27T04:33:17.557Z,67.67
2018-09-27T04:35:46.039Z,67.61
2018-09-27T04:38:14.500Z,68.07
2018-09-27T04:40:42.904Z,68.47
2018-09-27T04:43:11.466Z,68.70
2018-09-27T04:45:39.951Z,68.15
2018-09-27T04:48:08.278Z,68.68
2018-09-27T04:50:36.736Z,68.41
2018-09-27T04:53:05.134Z,68.50
2018-09-27T04:55:33.724Z,68.71
2018-09-27T04:58:02.334Z,68.66
2018-09-27T05:00:31.435Z,69.08
2018-09-27T05:02:59.947Z,69.19
2018-09-27T05:05:29.117Z,68.72
2018-09-27T05:07:57.663Z,69.46
2018-09-27T05:10:26.200Z,68.82
2018-09-27T05:12:54.826Z,68.86
2018-09-27T05:15:23.286Z,69.21
2018-09-27T05:17:51.614Z,69.18
2018-09-27T05:20:20.327Z,69.55
2018-09-27T05:22:48.742Z,69.41
2018-09-27T05:25:17.115Z,69.19
2018-09-27T05:27:45.565Z,69.27
2018-09-27T05:30:14.009Z,69.41
2018-09-27T05:32:42.424Z,69.08
2018-09-27T05:35:10.917Z,69.14
2018-09-27T05:37:39.364Z,68.74
2018-09-27T05:40:08.062Z,69.37
2018-09-27T05:42:36.470Z,69.13
2018-09-27T05:45:04.852Z,68.84
2018-09-27T05:47:39.674Z,69.08
2018-09-27T05:50:08.465Z,69.32
2018-09-27T05:52:36.894Z,69.43
2018-09-27T05:55:05.361Z,69.21
2018-09-27T05:57:33.845Z,68.76
2018-09-27T06:00:02.324Z,69.14
2018-09-27T06:02:30.960Z,68.70
2018-09-27T06:04:59.458Z,68.30
2018-09-27T06:07:27.941Z,68.74
2018-09-27T06:09:56.566Z,68.78
2018-09-27T06:12:24.992Z,68.49
2018-09-27T06:14:53.482Z,68.72
2018-09-27T06:17:21.924Z,68.79
2018-09-27T06:19:50.559Z,68.30
2018-09-27T06:22:19.070Z,68.88
2018-09-27T06:24:47.862Z,68.33
2018-09-27T06:27:16.248Z,68.12
2018-09-27T06:29:44.738Z,68.40
2018-09-27T06:32:13.189Z,68.37
2018-09-27T06:34:41.656Z,68.18
2018-09-27T06:37:10.167Z,68.40
2018-09-27T06:39:38.609Z,68.07
2018-09-27T06:42:07.213Z,68.12
2018-09-27T06:44:35.660Z,68.29
2018-09-27T06:47:04.231Z,68.23
2018-09-27T06:49:32.740Z,68.01
2018-09-27T06:52:01.452Z,68.08
2018-09-27T06:54:29.839Z,68.28
2018-09-27T06:56:58.389Z,68.08
2018-09-27T06:59:26.968Z,68.10
2018-09-27T07:01:55.538Z,67.96
2018-09-27T07:04:23.958Z,67.61
2018-09-27T07:06:52.451Z,68.58
2018-09-27T07:09:20.922Z,68.97
2018-09-27T07:11:49.581Z,68.89
2018-09-27T07:14:18.123Z,68.85
2018-09-27T07:16:46.565Z,68.60
2018-09-27T07:19:15.133Z,68.93
2018-09-27T07:21:43.557Z,68.89
2018-09-27T07:24:12.133Z,69.18
2018-09-27T07:26:40.574Z,68.32
2018-09-27T07:29:08.987Z,68.87
2018-09-27T07:31:37.617Z,68.41
2018-09-27T07:34:06.203Z,67.95
2018-09-27T07:36:34.743Z,68.07
2018-09-27T07:39:03.285Z,66.93
2018-09-27T07:41:31.856Z,66.07
2018-09-27T07:44:00.373Z,66.13
2018-09-27T07:46:28.869Z,66.10
2018-09-27T07:48:57.272Z,66.19
2018-09-27T07:51:25.675Z,66.47
2018-09-27T07:53:55.030Z,66.59
2018-09-27T07:56:23.683Z,66.30
2018-09-27T07:58:52.247Z,66.08
2018-09-27T08:01:21.001Z,65.28
2018-09-27T08:03:49.669Z,65.02
2018-09-27T08:06:18.202Z,65.20
2018-09-27T08:08:47.555Z,65.67
2018-09-27T08:11:16.195Z,66.41
2018-09-27T08:13:44.567Z,66.42
2018-09-27T08:16:13.012Z,66.28
2018-09-27T08:18:41.735Z,66.22
2018-09-27T08:21:10.432Z,66.41
2018-09-27T08:23:38.901Z,65.78
2018-09-27T08:26:07.418Z,65.15
2018-09-27T08:28:35.769Z,64.60
2018-09-27T08:31:04.303Z,63.42
2018-09-27T08:33:32.903Z,63.72
2018-09-27T08:36:01.931Z,63.70
2018-09-27T08:38:30.430Z,64.73
2018-09-27T08:40:58.876Z,64.35
2018-09-27T08:43:27.408Z,64.62
2018-09-27T08:45:55.901Z,64.47
2018-09-27T08:48:24.277Z,64.80
2018-09-27T08:50:52.769Z,64.62
2018-09-27T08:53:21.157Z,63.50
2018-09-27T08:55:49.677Z,63.78
2018-09-27T08:58:18.077Z,63.84
2018-09-27T09:00:46.473Z,63.17
2018-09-27T09:03:15.072Z,62.21
2018-09-27T09:05:43.457Z,61.95
2018-09-27T09:08:12.598Z,61.69
2018-09-27T09:10:41.452Z,61.51
2018-09-27T09:13:10.049Z,61.39
2018-09-27T09:15:38.531Z,60.28
2018-09-27T09:18:07.210Z,60.67
2018-09-27T09:20:35.606Z,59.93
2018-09-27T09:23:04.220Z,60.08
2018-09-27T09:25:32.653Z,60.31
2018-09-27T09:28:01.183Z,59.65
2018-09-27T09:30:29.605Z,60.08
2018-09-27T09:32:58.084Z,59.49
2018-09-27T09:35:26.509Z,58.94
2018-09-27T09:37:54.980Z,59.29
2018-09-27T09:40:23.500Z,59.47
2018-09-27T09:42:51.912Z,58.97
2018-09-27T09:45:20.387Z,58.72
2018-09-27T09:47:49.003Z,59.29
2018-09-27T09:50:17.526Z,58.87
2018-09-27T09:52:46.018Z,57.79
2018-09-27T09:55:14.576Z,57.17
2018-09-27T09:57:43.232Z,57.00
2018-09-27T10:00:11.634Z,56.81
2018-09-27T10:02:40.084Z,56.86
2018-09-27T10:05:08.690Z,56.19
2018-09-27T10:07:37.130Z,55.84
2018-09-27T10:10:07.468Z,54.69
2018-09-27T10:12:35.865Z,55.00
2018-09-27T10:15:07.707Z,54.28
2018-09-27T10:17:36.359Z,54.10
2018-09-27T10:20:04.845Z,53.33
2018-09-27T10:22:33.450Z,53.45
2018-09-27T10:25:02.045Z,52.83
2018-09-27T10:27:30.501Z,52.68
2018-09-27T10:29:58.951Z,53.16
2018-09-27T10:32:27.484Z,54.01
2018-09-27T10:34:56.036Z,53.34
2018-09-27T10:37:24.537Z,54.19
2018-09-27T10:39:53.203Z,54.83
2018-09-27T10:42:21.730Z,55.79
2018-09-27T10:44:50.839Z,55.56
2018-09-27T10:47:19.246Z,56.98
2018-09-27T10:49:47.693Z,57.17
2018-09-27T10:52:16.086Z,56.84
2018-09-27T10:54:44.496Z,56.67
2018-09-27T10:57:13.147Z,56.93
2018-09-27T10:59:41.782Z,56.10
2018-09-27T11:02:10.905Z,56.19
2018-09-27T11:04:40.006Z,56.32
2018-09-27T11:07:08.523Z,56.19
2018-09-27T11:09:37.183Z,55.58
2018-09-27T11:12:05.689Z,55.88
2018-09-27T11:14:34.764Z,55.82
2018-09-27T11:17:03.409Z,55.25
2018-09-27T11:19:32.054Z,54.85
2018-09-27T11:22:01.007Z,54.36
2018-09-27T11:24:30.074Z,53.82
2018-09-27T11:26:59.647Z,54.05
2018-09-27T11:29:33.488Z,54.04
2018-09-27T11:32:07.275Z,54.00
2018-09-27T11:34:36.187Z,54.43
2018-09-27T11:37:04.735Z,53.90
2018-09-27T11:39:33.727Z,53.70
2018-09-27T11:42:02.485Z,53.79
2018-09-27T11:44:31.354Z,54.60
2018-09-27T11:47:00.523Z,54.45
2018-09-27T11:49:29.037Z,54.17
2018-09-27T11:51:57.493Z,54.81
2018-09-27T11:54:25.985Z,54.30
2018-09-27T11:56:54.420Z,55.07
2018-09-27T11:59:22.947Z,54.77
2018-09-27T12:01:51.604Z,55.46
2018-09-27T12:04:20.113Z,55.10
2018-09-27T12:06:48.575Z,55.31
2018-09-27T12:09:17.040Z,55.43
2018-09-27T12:11:45.563Z,55.43
2018-09-27T12:14:14.568Z,55.64
2018-09-27T12:16:43.102Z,56.04
2018-09-27T12:19:11.533Z,56.43
2018-09-27T12:21:40.015Z,55.21
2018-09-27T12:24:08.451Z,55.85
2018-09-27T12:26:37.010Z,55.31
2018-09-27T12:29:05.468Z,55.47
2018-09-27T12:31:35.814Z,54.58
2018-09-27T12:34:04.292Z,54.43
2018-09-27T12:36:32.788Z,53.49
2018-09-27T12:39:01.312Z,53.55
2018-09-27T12:41:29.785Z,53.82
2018-09-27T12:43:58.208Z,53.55
2018-09-27T12:46:26.646Z,53.58
2018-09-27T12:48:55.249Z,53.70
2018-09-27T12:51:23.721Z,54.40
2018-09-27T12:53:52.238Z,54.45
2018-09-27T12:56:20.748Z,53.94
2018-09-27T12:58:49.251Z,53.99
2018-09-27T13:01:17.811Z,54.21
2018-09-27T13:03:46.293Z,53.60
2018-09-27T13:06:14.714Z,53.63
2018-09-27T13:08:43.160Z,53.75
2018-09-27T13:11:11.816Z,54.54
2018-09-27T13:13:40.707Z,54.15
2018-09-27T13:16:09.394Z,54.41
2018-09-27T13:18:37.825Z,55.05
2018-09-27T13:21:06.218Z,53.78
2018-09-27T13:23:34.894Z,53.68
2018-09-27T13:26:03.367Z,53.82
2018-09-27T13:28:31.912Z,54.18
2018-09-27T13:31:00.572Z,53.87
2018-09-27T13:33:28.983Z,53.61
2018-09-27T13:35:57.467Z,53.69
2018-09-27T13:38:26.192Z,54.10
2018-09-27T13:40:54.736Z,53.94
2018-09-27T13:43:23.214Z,54.08
2018-09-27T13:45:51.878Z,54.50
2018-09-27T13:48:20.435Z,54.04
2018-09-27T13:50:48.819Z,54.81
2018-09-27T13:53:17.289Z,54.41
2018-09-27T13:55:45.729Z,54.90
2018-09-27T13:58:14.141Z,54.68
2018-09-27T14:00:42.553Z,54.10
2018-09-27T14:03:11.313Z,54.30
2018-09-27T14:05:39.760Z,54.41
2018-09-27T14:08:08.402Z,54.53
2018-09-27T14:10:36.934Z,54.37
2018-09-27T14:13:05.425Z,54.43
2018-09-27T14:15:33.978Z,54.67
2018-09-27T14:18:02.535Z,54.30
2018-09-27T14:20:31.067Z,55.14
2018-09-27T14:22:59.829Z,54.59
2018-09-27T14:25:28.211Z,54.96
2018-09-27T14:27:56.854Z,54.86
2018-09-27T14:30:25.315Z,54.88
2018-09-27T14:32:53.886Z,54.74
2018-09-27T14:35:22.294Z,55.25
2018-09-27T14:37:50.871Z,54.77
2018-09-27T14:40:19.315Z,54.81
2018-09-27T14:42:47.839Z,54.39
2018-09-27T14:45:16.265Z,54.47
2018-09-27T14:47:45.650Z,54.36
2018-09-27T14:50:14.519Z,54.62
2018-09-27T14:52:42.993Z,54.21
2018-09-27T14:55:11.342Z,54.97
2018-09-27T14:57:39.788Z,54.72
2018-09-27T15:00:08.230Z,54.77
2018-09-27T15:02:36.923Z,54.56
2018-09-27T15:05:05.484Z,54.67
2018-09-27T15:07:33.866Z,55.39
2018-09-27T15:10:02.767Z,55.08
2018-09-27T15:12:31.164Z,55.47
2018-09-27T15:14:59.590Z,54.49
2018-09-27T15:17:28.176Z,55.21
2018-09-27T15:19:56.673Z,55.08
2018-09-27T15:22:25.156Z,55.37
2018-09-27T15:24:53.648Z,55.56
2018-09-27T15:27:22.290Z,55.24
2018-09-27T15:29:50.782Z,55.31
2018-09-27T15:32:19.605Z,55.16
2018-09-27T15:34:48.643Z,55.68
2018-09-27T15:37:17.233Z,55.11
2018-09-27T15:39:45.905Z,55.69
2018-09-27T15:42:14.467Z,55.83
2018-09-27T15:44:42.912Z,55.93
2018-09-27T15:47:11.463Z,55.63
2018-09-27T15:49:40.290Z,55.88
2018-09-27T15:52:09.054Z,55.57
2018-09-27T15:54:37.721Z,55.96
2018-09-27T15:57:06.391Z,55.62
2018-09-27T15:59:35.230Z,55.92
2018-09-27T16:02:04.306Z,56.21
2018-09-27T16:04:51.632Z,56.14
2018-09-27T16:07:25.994Z,55.66
2018-09-27T16:09:54.679Z,55.83
2018-09-27T16:12:23.342Z,55.92
2018-09-27T16:14:51.949Z,56.05
2018-09-27T16:17:20.388Z,55.89
2018-09-27T16:19:48.874Z,56.61
2018-09-27T16:22:17.263Z,56.59
2018-09-27T16:24:45.719Z,56.50
2018-09-27T16:27:14.186Z,57.01
2018-09-27T16:29:42.857Z,56.19
2018-09-27T16:32:11.965Z,56.28
2018-09-27T16:34:40.481Z,55.87
2018-09-27T16:37:09.125Z,56.24
2018-09-27T16:39:37.773Z,56.68
2018-09-27T16:42:06.874Z,56.85
2018-09-27T16:44:35.353Z,56.65
2018-09-27T16:47:04.003Z,56.77
2018-09-27T16:49:32.413Z,56.73
2018-09-27T16:52:01.141Z,56.93
2018-09-27T16:54:29.751Z,56.23
2018-09-27T16:56:58.119Z,56.53
2018-09-27T16:59:26.603Z,56.94
2018-09-27T17:01:55.150Z,56.77
2018-09-27T17:04:23.689Z,57.07
2018-09-27T17:06:52.149Z,56.59
2018-09-27T17:09:20.541Z,56.43
2018-09-27T17:11:49.049Z,57.28
2018-09-27T17:14:17.569Z,57.59
2018-09-27T17:16:46.010Z,56.83
2018-09-27T17:19:14.527Z,57.44
2018-09-27T17:24:11.168Z,57.29
2018-09-27T17:26:39.676Z,57.28
2018-09-27T17:29:11.485Z,57.59
2018-09-27T17:31:39.935Z,57.61
2018-09-27T17:34:08.559Z,57.95
2018-09-27T17:36:36.942Z,57.50
2018-09-27T17:39:06.901Z,57.98
2018-09-27T17:41:35.432Z,58.21
2018-09-27T17:44:03.936Z,57.63
2018-09-27T17:46:32.701Z,58.06
2018-09-27T17:49:01.411Z,57.96
2018-09-27T17:51:30.181Z,58.81
2018-09-27T17:53:58.649Z,58.70
2018-09-27T17:56:27.378Z,58.00
2018-09-27T17:58:55.894Z,58.85
2018-09-27T18:01:24.377Z,59.01
2018-09-27T18:03:52.978Z,58.51
2018-09-27T18:06:21.419Z,58.95
2018-09-27T18:08:50.010Z,59.34
2018-09-27T18:11:18.490Z,58.62
2018-09-27T18:13:46.989Z,59.17
2018-09-27T18:16:15.555Z,59.05
2018-09-27T18:18:45.045Z,58.69
2018-09-27T18:21:13.776Z,59.52
2018-09-27T18:23:42.362Z,59.56
2018-09-27T18:26:11.040Z,59.37
2018-09-27T18:28:39.797Z,59.40
2018-09-27T18:31:08.507Z,59.67
2018-09-27T18:33:36.983Z,59.25
2018-09-27T18:36:05.424Z,59.38
2018-09-27T18:38:34.211Z,60.11
2018-09-27T18:41:02.966Z,60.29
2018-09-27T18:43:31.911Z,60.10
2018-09-27T18:46:00.469Z,60.51
2018-09-27T18:48:29.322Z,60.47
2018-09-27T18:50:57.941Z,60.56
2018-09-27T18:53:26.579Z,60.85
2018-09-27T18:55:55.297Z,60.72
2018-09-27T18:58:24.005Z,60.29
2018-09-27T19:00:53.555Z,60.54
2018-09-27T19:03:22.346Z,60.40
2018-09-27T19:05:51.054Z,60.43
2018-09-27T19:08:19.868Z,60.75
2018-09-27T19:10:48.723Z,60.62
2018-09-27T19:13:17.386Z,61.19
2018-09-27T19:15:45.891Z,60.70
2018-09-27T19:18:14.745Z,60.71
2018-09-27T19:20:43.295Z,61.13
2018-09-27T19:23:11.907Z,60.03
2018-09-27T19:25:40.429Z,60.69
2018-09-27T19:28:09.148Z,60.27
2018-09-27T19:30:37.914Z,61.08
2018-09-27T19:33:06.742Z,60.99
2018-09-27T19:35:35.278Z,61.35
2018-09-27T19:38:04.046Z,61.19
2018-09-27T19:40:32.959Z,60.62
2018-09-27T19:43:01.637Z,60.91
2018-09-27T19:45:30.539Z,61.21
2018-09-27T19:47:59.381Z,61.27
2018-09-27T19:50:28.240Z,61.25
2018-09-27T19:52:57.516Z,60.58
2018-09-27T19:55:26.735Z,60.44
2018-09-27T19:57:55.913Z,60.48
2018-09-27T20:00:25.509Z,61.08
2018-09-27T20:02:54.863Z,60.35
2018-09-27T20:05:24.185Z,60.68
2018-09-27T20:07:54.088Z,60.21
2018-09-27T20:10:24.002Z,60.03
2018-09-27T20:12:53.163Z,60.12
2018-09-27T20:15:22.564Z,59.72
2018-09-27T20:17:52.050Z,59.09
2018-09-27T20:20:21.076Z,59.24
2018-09-27T20:22:49.959Z,59.39
2018-09-27T20:25:18.864Z,59.13
2018-09-27T20:27:47.551Z,59.55
2018-09-27T20:30:16.241Z,59.09
2018-09-27T20:32:44.916Z,58.93
2018-09-27T20:35:13.498Z,58.42
2018-09-27T20:37:42.488Z,58.44
2018-09-27T20:40:11.088Z,56.49
2018-09-27T20:42:39.763Z,56.03
2018-09-27T20:45:08.339Z,55.46
2018-09-27T20:47:37.126Z,55.77
2018-09-27T20:50:05.760Z,55.83
2018-09-27T20:52:34.696Z,55.79
2018-09-27T20:55:03.867Z,55.92
2018-09-27T20:57:32.453Z,55.28
2018-09-27T21:00:01.257Z,55.40
2018-09-27T21:02:30.308Z,54.76
2018-09-27T21:04:58.727Z,55.25
2018-09-27T21:07:27.323Z,55.56
2018-09-27T21:10:02.622Z,55.69
2018-09-27T21:12:31.393Z,54.93
2018-09-27T21:14:59.818Z,55.29
2018-09-27T21:17:28.691Z,54.94
2018-09-27T21:19:57.209Z,54.84
2018-09-27T21:22:26.465Z,54.92
2018-09-27T21:24:55.096Z,55.65
2018-09-27T21:27:23.863Z,55.71
2018-09-27T21:29:52.379Z,55.66
2018-09-27T21:32:28.127Z,55.38
2018-09-27T21:34:57.165Z,55.46
2018-09-27T21:37:25.809Z,55.43
2018-09-27T21:39:54.446Z,55.29
2018-09-27T21:42:23.175Z,54.96
2018-09-27T21:44:51.773Z,55.24
2018-09-27T21:47:20.248Z,55.69
2018-09-27T21:49:48.973Z,55.25
2018-09-27T21:52:17.561Z,56.20
2018-09-27T21:54:46.162Z,55.87
2018-09-27T21:57:14.920Z,55.44
2018-09-27T21:59:43.788Z,55.96
2018-09-27T22:02:12.395Z,55.81
2018-09-27T22:04:41.148Z,55.35
2018-09-27T22:07:10.134Z,56.00
2018-09-27T22:09:38.716Z,55.92
2018-09-27T22:12:07.350Z,55.84
2018-09-27T22:14:35.909Z,55.73
2018-09-27T22:17:04.561Z,56.38
2018-09-27T22:19:33.483Z,56.46
2018-09-27T22:22:02.482Z,56.51
2018-09-27T22:24:30.999Z,56.64
2018-09-27T22:26:59.773Z,56.71
2018-09-27T22:29:28.209Z,57.03
2018-09-27T22:31:56.732Z,56.67
2018-09-27T22:34:25.244Z,57.13
2018-09-27T22:36:54.103Z,57.30
2018-09-27T22:39:22.663Z,57.92
2018-09-27T22:41:51.047Z,57.58
2018-09-27T22:44:19.655Z,58.79
2018-09-27T22:46:48.137Z,59.96
2018-09-27T22:49:16.540Z,59.94
2018-09-27T22:51:44.964Z,61.03
2018-09-27T22:54:13.543Z,60.97
2018-09-27T22:56:42.133Z,61.20
2018-09-27T22:59:10.582Z,61.80
2018-09-27T23:01:39.119Z,61.76
2018-09-27T23:04:07.705Z,61.67
2018-09-27T23:06:36.252Z,62.39
2018-09-27T23:09:06.260Z,63.71
2018-09-27T23:11:34.914Z,64.49
2018-09-27T23:14:04.712Z,66.01
2018-09-27T23:16:33.263Z,65.93
2018-09-27T23:19:02.248Z,66.43
2018-09-27T23:21:30.875Z,66.72
2018-09-27T23:23:59.774Z,66.60
2018-09-27T23:26:29.184Z,66.99
2018-09-27T23:28:57.941Z,66.98
2018-09-27T23:31:26.960Z,67.36
2018-09-27T23:33:55.542Z,67.53
2018-09-27T23:36:24.403Z,67.15
2018-09-27T23:38:52.981Z,68.15
2018-09-27T23:41:21.896Z,67.61
2018-09-27T23:43:50.511Z,66.99
2018-09-27T23:46:19.006Z,67.75
2018-09-27T23:48:47.619Z,67.26
2018-09-27T23:51:16.221Z,67.16
2018-09-27T23:53:44.706Z,66.42
2018-09-27T23:56:13.234Z,66.43
2018-09-27T23:58:41.855Z,65.65
